sensor_id;sensor_type;location;lat;lon;timestamp;temperature;humidity
65231;DHT22;51813;40.666;16.602;2024-01-11T00:01:47;16.10;54.60
65231;DHT22;51813;40.666;16.602;2024-01-11T00:04:13;16.00;54.80
65231;DHT22;51813;40.666;16.602;2024-01-11T00:06:42;16.00;55.20
65231;DHT22;51813;40.666;16.602;2024-01-11T00:09:08;16.10;54.90
65231;DHT22;51813;40.666;16.602;2024-01-11T00:11:34;16.00;55.10
65231;DHT22;51813;40.666;16.602;2024-01-11T00:13:59;16.10;54.90
65231;DHT22;51813;40.666;16.602;2024-01-11T00:16:25;16.10;54.60
65231;DHT22;51813;40.666;16.602;2024-01-11T00:18:51;16.00;55.00
65231;DHT22;51813;40.666;16.602;2024-01-11T00:21:17;16.10;54.90
65231;DHT22;51813;40.666;16.602;2024-01-11T00:23:43;16.10;55.10
65231;DHT22;51813;40.666;16.602;2024-01-11T00:26:11;16.20;54.70
65231;DHT22;51813;40.666;16.602;2024-01-11T00:28:37;16.20;54.40
65231;DHT22;51813;40.666;16.602;2024-01-11T00:31:03;16.20;54.50
65231;DHT22;51813;40.666;16.602;2024-01-11T00:33:28;16.10;54.90
65231;DHT22;51813;40.666;16.602;2024-01-11T00:35:54;16.00;54.40
65231;DHT22;51813;40.666;16.602;2024-01-11T00:38:20;15.90;55.20
65231;DHT22;51813;40.666;16.602;2024-01-11T00:40:45;16.00;55.00
65231;DHT22;51813;40.666;16.602;2024-01-11T00:43:11;16.00;55.30
65231;DHT22;51813;40.666;16.602;2024-01-11T00:45:37;16.10;55.10
65231;DHT22;51813;40.666;16.602;2024-01-11T00:48:03;16.20;54.70
65231;DHT22;51813;40.666;16.602;2024-01-11T00:50:29;16.10;54.80
65231;DHT22;51813;40.666;16.602;2024-01-11T00:52:55;16.00;55.20
65231;DHT22;51813;40.666;16.602;2024-01-11T00:55:21;15.90;54.80
65231;DHT22;51813;40.666;16.602;2024-01-11T00:57:46;15.90;55.80
65231;DHT22;51813;40.666;16.602;2024-01-11T01:00:12;15.90;55.50
65231;DHT22;51813;40.666;16.602;2024-01-11T01:02:41;16.00;54.90
65231;DHT22;51813;40.666;16.602;2024-01-11T01:05:07;16.00;55.20
65231;DHT22;51813;40.666;16.602;2024-01-11T01:07:33;16.10;54.90
65231;DHT22;51813;40.666;16.602;2024-01-11T01:09:58;16.10;55.00
65231;DHT22;51813;40.666;16.602;2024-01-11T01:12:24;16.20;54.90
65231;DHT22;51813;40.666;16.602;2024-01-11T01:14:54;16.00;55.10
65231;DHT22;51813;40.666;16.602;2024-01-11T01:17:23;16.10;55.10
65231;DHT22;51813;40.666;16.602;2024-01-11T01:19:49;16.20;54.70
65231;DHT22;51813;40.666;16.602;2024-01-11T01:22:15;16.00;55.00
65231;DHT22;51813;40.666;16.602;2024-01-11T01:24:40;16.00;55.40
65231;DHT22;51813;40.666;16.602;2024-01-11T01:27:06;16.10;55.10
65231;DHT22;51813;40.666;16.602;2024-01-11T01:29:31;16.10;54.90
65231;DHT22;51813;40.666;16.602;2024-01-11T01:31:57;16.10;54.80
65231;DHT22;51813;40.666;16.602;2024-01-11T01:34:23;16.10;55.10
65231;DHT22;51813;40.666;16.602;2024-01-11T01:36:48;16.00;55.20
65231;DHT22;51813;40.666;16.602;2024-01-11T01:39:14;15.90;55.20
65231;DHT22;51813;40.666;16.602;2024-01-11T01:41:40;16.00;55.40
65231;DHT22;51813;40.666;16.602;2024-01-11T01:44:05;15.90;55.00
65231;DHT22;51813;40.666;16.602;2024-01-11T01:46:31;15.80;55.50
65231;DHT22;51813;40.666;16.602;2024-01-11T01:48:58;15.80;55.50
65231;DHT22;51813;40.666;16.602;2024-01-11T01:51:24;15.90;55.60
65231;DHT22;51813;40.666;16.602;2024-01-11T01:53:53;16.00;55.30
65231;DHT22;51813;40.666;16.602;2024-01-11T01:56:20;16.00;55.20
65231;DHT22;51813;40.666;16.602;2024-01-11T01:58:48;16.00;54.80
65231;DHT22;51813;40.666;16.602;2024-01-11T02:01:16;16.00;55.10
65231;DHT22;51813;40.666;16.602;2024-01-11T02:03:41;15.80;55.20
65231;DHT22;51813;40.666;16.602;2024-01-11T02:06:09;15.80;55.70
65231;DHT22;51813;40.666;16.602;2024-01-11T02:08:34;15.80;55.60
65231;DHT22;51813;40.666;16.602;2024-01-11T02:11:01;15.80;55.60
65231;DHT22;51813;40.666;16.602;2024-01-11T02:13:27;15.90;55.30
65231;DHT22;51813;40.666;16.602;2024-01-11T02:15:52;15.90;55.60
65231;DHT22;51813;40.666;16.602;2024-01-11T02:18:18;15.90;55.90
65231;DHT22;51813;40.666;16.602;2024-01-11T02:20:44;16.00;55.20
65231;DHT22;51813;40.666;16.602;2024-01-11T02:23:17;16.00;55.00
65231;DHT22;51813;40.666;16.602;2024-01-11T02:25:45;15.90;55.00
65231;DHT22;51813;40.666;16.602;2024-01-11T02:28:10;15.80;55.00
65231;DHT22;51813;40.666;16.602;2024-01-11T02:30:36;15.60;55.50
65231;DHT22;51813;40.666;16.602;2024-01-11T02:33:04;15.60;56.10
65231;DHT22;51813;40.666;16.602;2024-01-11T02:35:30;15.80;55.90
65231;DHT22;51813;40.666;16.602;2024-01-11T02:37:57;15.90;55.60
65231;DHT22;51813;40.666;16.602;2024-01-11T02:40:24;16.00;55.40
65231;DHT22;51813;40.666;16.602;2024-01-11T02:42:51;16.10;55.30
65231;DHT22;51813;40.666;16.602;2024-01-11T02:45:16;16.10;55.10
65231;DHT22;51813;40.666;16.602;2024-01-11T02:47:42;16.10;54.70
65231;DHT22;51813;40.666;16.602;2024-01-11T02:50:08;16.00;54.60
65231;DHT22;51813;40.666;16.602;2024-01-11T02:52:34;15.90;54.80
65231;DHT22;51813;40.666;16.602;2024-01-11T02:55:00;15.90;55.20
65231;DHT22;51813;40.666;16.602;2024-01-11T02:57:26;15.90;55.30
65231;DHT22;51813;40.666;16.602;2024-01-11T02:59:51;15.90;55.30
65231;DHT22;51813;40.666;16.602;2024-01-11T03:02:17;15.90;55.20
65231;DHT22;51813;40.666;16.602;2024-01-11T03:04:43;16.00;55.00
65231;DHT22;51813;40.666;16.602;2024-01-11T03:07:08;15.80;55.70
65231;DHT22;51813;40.666;16.602;2024-01-11T03:09:34;15.90;55.50
65231;DHT22;51813;40.666;16.602;2024-01-11T03:12:00;15.80;55.80
65231;DHT22;51813;40.666;16.602;2024-01-11T03:14:26;15.80;55.70
65231;DHT22;51813;40.666;16.602;2024-01-11T03:16:52;15.90;55.30
65231;DHT22;51813;40.666;16.602;2024-01-11T03:19:17;16.00;55.30
65231;DHT22;51813;40.666;16.602;2024-01-11T03:21:46;15.90;55.30
65231;DHT22;51813;40.666;16.602;2024-01-11T03:24:13;15.90;55.10
65231;DHT22;51813;40.666;16.602;2024-01-11T03:26:38;15.90;55.70
65231;DHT22;51813;40.666;16.602;2024-01-11T03:29:05;15.90;55.60
65231;DHT22;51813;40.666;16.602;2024-01-11T03:31:30;16.00;55.30
65231;DHT22;51813;40.666;16.602;2024-01-11T03:33:57;16.10;55.10
65231;DHT22;51813;40.666;16.602;2024-01-11T03:36:24;16.10;55.20
65231;DHT22;51813;40.666;16.602;2024-01-11T03:38:50;16.10;54.80
65231;DHT22;51813;40.666;16.602;2024-01-11T03:41:16;15.80;55.20
65231;DHT22;51813;40.666;16.602;2024-01-11T03:43:41;15.90;55.60
65231;DHT22;51813;40.666;16.602;2024-01-11T03:46:07;15.70;55.30
65231;DHT22;51813;40.666;16.602;2024-01-11T03:48:32;15.80;56.00
65231;DHT22;51813;40.666;16.602;2024-01-11T03:50:58;15.80;55.80
65231;DHT22;51813;40.666;16.602;2024-01-11T03:53:24;15.80;55.50
65231;DHT22;51813;40.666;16.602;2024-01-11T03:55:51;15.80;55.70
65231;DHT22;51813;40.666;16.602;2024-01-11T03:58:16;15.90;55.60
65231;DHT22;51813;40.666;16.602;2024-01-11T04:00:42;15.90;55.40
65231;DHT22;51813;40.666;16.602;2024-01-11T04:03:08;15.90;55.60
65231;DHT22;51813;40.666;16.602;2024-01-11T04:05:33;15.70;55.80
65231;DHT22;51813;40.666;16.602;2024-01-11T04:07:59;15.80;55.80
65231;DHT22;51813;40.666;16.602;2024-01-11T04:10:24;15.90;55.50
65231;DHT22;51813;40.666;16.602;2024-01-11T04:12:50;15.90;55.40
65231;DHT22;51813;40.666;16.602;2024-01-11T04:15:16;15.90;55.70
65231;DHT22;51813;40.666;16.602;2024-01-11T04:17:41;15.90;55.50
65231;DHT22;51813;40.666;16.602;2024-01-11T04:20:08;16.00;55.50
65231;DHT22;51813;40.666;16.602;2024-01-11T04:22:34;15.90;55.20
65231;DHT22;51813;40.666;16.602;2024-01-11T04:25:00;15.90;55.50
65231;DHT22;51813;40.666;16.602;2024-01-11T04:27:26;15.80;55.50
65231;DHT22;51813;40.666;16.602;2024-01-11T04:29:51;15.70;55.80
65231;DHT22;51813;40.666;16.602;2024-01-11T04:32:17;15.70;56.00
65231;DHT22;51813;40.666;16.602;2024-01-11T04:34:43;15.70;55.90
65231;DHT22;51813;40.666;16.602;2024-01-11T04:37:09;15.60;55.70
65231;DHT22;51813;40.666;16.602;2024-01-11T04:39:34;15.70;55.80
65231;DHT22;51813;40.666;16.602;2024-01-11T04:42:00;15.70;56.00
65231;DHT22;51813;40.666;16.602;2024-01-11T04:44:26;15.80;55.60
65231;DHT22;51813;40.666;16.602;2024-01-11T04:46:52;15.80;55.50
65231;DHT22;51813;40.666;16.602;2024-01-11T04:49:17;15.80;55.30
65231;DHT22;51813;40.666;16.602;2024-01-11T04:51:43;15.90;55.30
65231;DHT22;51813;40.666;16.602;2024-01-11T04:54:09;15.80;55.40
65231;DHT22;51813;40.666;16.602;2024-01-11T04:56:34;15.80;55.70
65231;DHT22;51813;40.666;16.602;2024-01-11T04:59:00;15.80;55.80
65231;DHT22;51813;40.666;16.602;2024-01-11T05:01:26;15.80;55.80
65231;DHT22;51813;40.666;16.602;2024-01-11T05:03:51;15.80;55.60
65231;DHT22;51813;40.666;16.602;2024-01-11T05:06:22;15.90;55.40
65231;DHT22;51813;40.666;16.602;2024-01-11T05:08:51;15.70;55.70
65231;DHT22;51813;40.666;16.602;2024-01-11T05:11:22;15.70;55.50
65231;DHT22;51813;40.666;16.602;2024-01-11T05:13:52;15.80;55.60
65231;DHT22;51813;40.666;16.602;2024-01-11T05:16:27;15.90;55.50
65231;DHT22;51813;40.666;16.602;2024-01-11T05:18:55;15.90;55.30
65231;DHT22;51813;40.666;16.602;2024-01-11T05:21:21;15.90;55.30
65231;DHT22;51813;40.666;16.602;2024-01-11T05:23:47;15.80;55.30
65231;DHT22;51813;40.666;16.602;2024-01-11T05:26:15;15.60;55.70
65231;DHT22;51813;40.666;16.602;2024-01-11T05:28:41;15.80;55.70
65231;DHT22;51813;40.666;16.602;2024-01-11T05:31:11;15.90;55.60
65231;DHT22;51813;40.666;16.602;2024-01-11T05:33:38;15.90;55.40
65231;DHT22;51813;40.666;16.602;2024-01-11T05:36:04;15.90;55.20
65231;DHT22;51813;40.666;16.602;2024-01-11T05:38:30;15.80;55.60
65231;DHT22;51813;40.666;16.602;2024-01-11T05:40:56;15.90;55.50
65231;DHT22;51813;40.666;16.602;2024-01-11T05:43:24;15.90;55.30
65231;DHT22;51813;40.666;16.602;2024-01-11T05:45:51;15.90;55.20
65231;DHT22;51813;40.666;16.602;2024-01-11T05:48:17;15.90;55.40
65231;DHT22;51813;40.666;16.602;2024-01-11T05:50:46;15.90;55.10
65231;DHT22;51813;40.666;16.602;2024-01-11T05:53:12;16.00;55.00
65231;DHT22;51813;40.666;16.602;2024-01-11T05:55:41;16.00;55.20
65231;DHT22;51813;40.666;16.602;2024-01-11T05:58:07;16.00;55.20
65231;DHT22;51813;40.666;16.602;2024-01-11T06:00:33;15.90;54.90
65231;DHT22;51813;40.666;16.602;2024-01-11T06:02:58;15.90;55.20
65231;DHT22;51813;40.666;16.602;2024-01-11T06:05:25;15.80;55.30
65231;DHT22;51813;40.666;16.602;2024-01-11T06:07:51;15.80;55.40
65231;DHT22;51813;40.666;16.602;2024-01-11T06:10:17;15.90;55.60
65231;DHT22;51813;40.666;16.602;2024-01-11T06:12:44;15.90;55.20
65231;DHT22;51813;40.666;16.602;2024-01-11T06:15:09;15.90;55.30
65231;DHT22;51813;40.666;16.602;2024-01-11T06:17:35;15.90;55.20
65231;DHT22;51813;40.666;16.602;2024-01-11T06:20:01;15.90;55.20
65231;DHT22;51813;40.666;16.602;2024-01-11T06:22:27;16.00;55.00
65231;DHT22;51813;40.666;16.602;2024-01-11T06:24:53;15.80;55.50
65231;DHT22;51813;40.666;16.602;2024-01-11T06:27:18;15.80;55.60
65231;DHT22;51813;40.666;16.602;2024-01-11T06:29:44;15.80;55.50
65231;DHT22;51813;40.666;16.602;2024-01-11T06:32:10;15.80;55.70
65231;DHT22;51813;40.666;16.602;2024-01-11T06:34:35;15.80;55.90
65231;DHT22;51813;40.666;16.602;2024-01-11T06:37:02;15.90;55.60
65231;DHT22;51813;40.666;16.602;2024-01-11T06:39:31;15.90;55.30
65231;DHT22;51813;40.666;16.602;2024-01-11T06:41:57;15.80;55.30
65231;DHT22;51813;40.666;16.602;2024-01-11T06:44:22;15.70;55.20
65231;DHT22;51813;40.666;16.602;2024-01-11T06:46:48;15.80;55.40
65231;DHT22;51813;40.666;16.602;2024-01-11T06:49:14;15.80;55.40
65231;DHT22;51813;40.666;16.602;2024-01-11T06:51:39;15.90;55.50
65231;DHT22;51813;40.666;16.602;2024-01-11T06:54:06;15.90;55.30
65231;DHT22;51813;40.666;16.602;2024-01-11T06:56:32;16.00;55.20
65231;DHT22;51813;40.666;16.602;2024-01-11T06:58:57;15.90;55.00
65231;DHT22;51813;40.666;16.602;2024-01-11T07:01:23;16.00;55.00
65231;DHT22;51813;40.666;16.602;2024-01-11T07:03:49;16.00;55.00
65231;DHT22;51813;40.666;16.602;2024-01-11T07:06:15;16.00;55.20
65231;DHT22;51813;40.666;16.602;2024-01-11T07:08:41;16.00;54.90
65231;DHT22;51813;40.666;16.602;2024-01-11T07:11:06;16.00;54.90
65231;DHT22;51813;40.666;16.602;2024-01-11T07:13:33;16.00;54.80
65231;DHT22;51813;40.666;16.602;2024-01-11T07:15:59;15.90;55.90
65231;DHT22;51813;40.666;16.602;2024-01-11T07:18:28;15.90;55.20
65231;DHT22;51813;40.666;16.602;2024-01-11T07:20:56;16.00;55.50
65231;DHT22;51813;40.666;16.602;2024-01-11T07:23:22;15.90;55.40
65231;DHT22;51813;40.666;16.602;2024-01-11T07:25:47;15.90;55.40
65231;DHT22;51813;40.666;16.602;2024-01-11T07:28:13;15.90;55.20
65231;DHT22;51813;40.666;16.602;2024-01-11T07:30:39;15.80;55.50
65231;DHT22;51813;40.666;16.602;2024-01-11T07:33:05;15.40;56.20
65231;DHT22;51813;40.666;16.602;2024-01-11T07:35:31;15.40;56.50
65231;DHT22;51813;40.666;16.602;2024-01-11T07:37:57;15.40;56.50
65231;DHT22;51813;40.666;16.602;2024-01-11T07:40:23;15.60;56.40
65231;DHT22;51813;40.666;16.602;2024-01-11T07:42:48;15.80;56.00
65231;DHT22;51813;40.666;16.602;2024-01-11T07:45:15;15.80;55.50
65231;DHT22;51813;40.666;16.602;2024-01-11T07:47:41;15.80;55.50
65231;DHT22;51813;40.666;16.602;2024-01-11T07:50:08;15.70;55.80
65231;DHT22;51813;40.666;16.602;2024-01-11T07:52:37;15.80;55.90
65231;DHT22;51813;40.666;16.602;2024-01-11T07:55:04;15.90;55.80
65231;DHT22;51813;40.666;16.602;2024-01-11T07:57:33;15.90;55.50
65231;DHT22;51813;40.666;16.602;2024-01-11T07:59:59;15.90;55.40
65231;DHT22;51813;40.666;16.602;2024-01-11T08:02:25;15.90;55.30
65231;DHT22;51813;40.666;16.602;2024-01-11T08:04:51;15.80;55.60
65231;DHT22;51813;40.666;16.602;2024-01-11T08:07:17;15.90;55.60
65231;DHT22;51813;40.666;16.602;2024-01-11T08:09:42;15.90;55.70
65231;DHT22;51813;40.666;16.602;2024-01-11T08:12:16;15.80;55.50
65231;DHT22;51813;40.666;16.602;2024-01-11T08:14:42;15.80;55.20
65231;DHT22;51813;40.666;16.602;2024-01-11T08:17:08;15.60;56.00
65231;DHT22;51813;40.666;16.602;2024-01-11T08:19:34;15.40;56.60
65231;DHT22;51813;40.666;16.602;2024-01-11T08:22:00;15.60;56.20
65231;DHT22;51813;40.666;16.602;2024-01-11T08:24:26;15.70;56.30
65231;DHT22;51813;40.666;16.602;2024-01-11T08:26:52;15.60;56.10
65231;DHT22;51813;40.666;16.602;2024-01-11T08:29:18;15.40;56.20
65231;DHT22;51813;40.666;16.602;2024-01-11T08:31:45;15.40;57.10
65231;DHT22;51813;40.666;16.602;2024-01-11T08:34:11;15.40;57.10
65231;DHT22;51813;40.666;16.602;2024-01-11T08:36:37;15.40;56.50
65231;DHT22;51813;40.666;16.602;2024-01-11T08:39:04;15.50;57.00
65231;DHT22;51813;40.666;16.602;2024-01-11T08:41:34;15.50;56.80
65231;DHT22;51813;40.666;16.602;2024-01-11T08:44:06;15.50;56.30
65231;DHT22;51813;40.666;16.602;2024-01-11T08:46:32;15.80;56.90
65231;DHT22;51813;40.666;16.602;2024-01-11T08:49:02;15.90;55.60
65231;DHT22;51813;40.666;16.602;2024-01-11T08:51:31;15.90;56.30
65231;DHT22;51813;40.666;16.602;2024-01-11T08:53:57;15.80;55.40
65231;DHT22;51813;40.666;16.602;2024-01-11T08:56:23;15.80;55.50
65231;DHT22;51813;40.666;16.602;2024-01-11T08:58:49;15.80;55.50
65231;DHT22;51813;40.666;16.602;2024-01-11T09:01:15;16.00;55.30
65231;DHT22;51813;40.666;16.602;2024-01-11T09:03:41;16.20;54.80
65231;DHT22;51813;40.666;16.602;2024-01-11T09:06:07;16.20;54.10
65231;DHT22;51813;40.666;16.602;2024-01-11T09:08:32;16.20;54.40
65231;DHT22;51813;40.666;16.602;2024-01-11T09:10:59;16.40;54.10
65231;DHT22;51813;40.666;16.602;2024-01-11T09:13:25;16.30;54.30
65231;DHT22;51813;40.666;16.602;2024-01-11T09:15:54;16.70;53.50
65231;DHT22;51813;40.666;16.602;2024-01-11T09:18:20;16.70;53.00
65231;DHT22;51813;40.666;16.602;2024-01-11T09:20:46;16.80;53.10
65231;DHT22;51813;40.666;16.602;2024-01-11T09:23:13;17.10;52.20
65231;DHT22;51813;40.666;16.602;2024-01-11T09:25:39;17.30;52.30
65231;DHT22;51813;40.666;16.602;2024-01-11T09:28:05;17.00;52.50
65231;DHT22;51813;40.666;16.602;2024-01-11T09:30:31;17.50;52.20
65231;DHT22;51813;40.666;16.602;2024-01-11T09:32:57;17.80;51.50
65231;DHT22;51813;40.666;16.602;2024-01-11T09:35:23;18.00;51.00
65231;DHT22;51813;40.666;16.602;2024-01-11T09:37:49;18.10;51.00
65231;DHT22;51813;40.666;16.602;2024-01-11T09:40:16;18.20;50.90
65231;DHT22;51813;40.666;16.602;2024-01-11T09:42:42;18.20;50.70
65231;DHT22;51813;40.666;16.602;2024-01-11T09:45:13;18.30;50.50
65231;DHT22;51813;40.666;16.602;2024-01-11T09:47:41;18.20;50.00
65231;DHT22;51813;40.666;16.602;2024-01-11T09:50:08;17.90;50.00
65231;DHT22;51813;40.666;16.602;2024-01-11T09:52:34;17.60;50.50
65231;DHT22;51813;40.666;16.602;2024-01-11T09:55:00;17.60;51.00
65231;DHT22;51813;40.666;16.602;2024-01-11T09:57:30;17.40;52.00
65231;DHT22;51813;40.666;16.602;2024-01-11T09:59:57;17.60;51.20
65231;DHT22;51813;40.666;16.602;2024-01-11T10:02:26;17.70;51.30
65231;DHT22;51813;40.666;16.602;2024-01-11T10:04:52;17.80;50.50
65231;DHT22;51813;40.666;16.602;2024-01-11T10:07:21;17.90;50.60
65231;DHT22;51813;40.666;16.602;2024-01-11T10:09:48;17.70;51.20
65231;DHT22;51813;40.666;16.602;2024-01-11T10:12:14;18.10;51.20
65231;DHT22;51813;40.666;16.602;2024-01-11T10:14:39;18.40;50.30
65231;DHT22;51813;40.666;16.602;2024-01-11T10:17:06;18.10;49.50
65231;DHT22;51813;40.666;16.602;2024-01-11T10:19:32;18.00;50.80
65231;DHT22;51813;40.666;16.602;2024-01-11T10:21:58;17.90;50.40
65231;DHT22;51813;40.666;16.602;2024-01-11T10:24:26;18.20;50.70
65231;DHT22;51813;40.666;16.602;2024-01-11T10:26:57;18.30;50.00
65231;DHT22;51813;40.666;16.602;2024-01-11T10:29:30;18.40;49.60
65231;DHT22;51813;40.666;16.602;2024-01-11T10:31:56;18.50;49.30
65231;DHT22;51813;40.666;16.602;2024-01-11T10:34:23;18.60;49.00
65231;DHT22;51813;40.666;16.602;2024-01-11T10:36:52;18.60;49.10
65231;DHT22;51813;40.666;16.602;2024-01-11T10:39:23;18.60;48.90
65231;DHT22;51813;40.666;16.602;2024-01-11T10:41:51;18.70;48.80
65231;DHT22;51813;40.666;16.602;2024-01-11T10:44:21;18.30;48.70
65231;DHT22;51813;40.666;16.602;2024-01-11T10:46:50;18.10;49.20
65231;DHT22;51813;40.666;16.602;2024-01-11T10:49:21;18.00;49.50
65231;DHT22;51813;40.666;16.602;2024-01-11T10:52:00;17.90;50.00
65231;DHT22;51813;40.666;16.602;2024-01-11T10:54:27;17.80;50.30
65231;DHT22;51813;40.666;16.602;2024-01-11T10:56:55;17.70;50.80
65231;DHT22;51813;40.666;16.602;2024-01-11T10:59:22;17.40;50.60
65231;DHT22;51813;40.666;16.602;2024-01-11T11:01:56;17.40;50.90
65231;DHT22;51813;40.666;16.602;2024-01-11T11:04:25;17.40;51.10
65231;DHT22;51813;40.666;16.602;2024-01-11T11:06:56;17.30;51.30
65231;DHT22;51813;40.666;16.602;2024-01-11T11:09:24;17.30;52.40
65231;DHT22;51813;40.666;16.602;2024-01-11T11:11:53;17.40;51.90
65231;DHT22;51813;40.666;16.602;2024-01-11T11:14:22;17.50;52.00
65231;DHT22;51813;40.666;16.602;2024-01-11T11:16:48;17.50;51.50
65231;DHT22;51813;40.666;16.602;2024-01-11T11:19:14;17.40;50.90
65231;DHT22;51813;40.666;16.602;2024-01-11T11:21:44;17.40;51.40
65231;DHT22;51813;40.666;16.602;2024-01-11T11:24:10;17.40;52.10
65231;DHT22;51813;40.666;16.602;2024-01-11T11:26:36;17.30;51.80
65231;DHT22;51813;40.666;16.602;2024-01-11T11:29:03;17.60;51.70
65231;DHT22;51813;40.666;16.602;2024-01-11T11:31:42;17.80;50.90
65231;DHT22;51813;40.666;16.602;2024-01-11T11:34:12;17.80;50.50
65231;DHT22;51813;40.666;16.602;2024-01-11T11:36:40;17.80;50.90
65231;DHT22;51813;40.666;16.602;2024-01-11T11:39:10;17.60;50.70
65231;DHT22;51813;40.666;16.602;2024-01-11T11:41:39;17.40;52.20
65231;DHT22;51813;40.666;16.602;2024-01-11T11:44:07;17.30;51.80
65231;DHT22;51813;40.666;16.602;2024-01-11T11:46:33;17.10;52.10
65231;DHT22;51813;40.666;16.602;2024-01-11T11:48:59;17.20;52.50
65231;DHT22;51813;40.666;16.602;2024-01-11T11:51:26;17.50;51.90
65231;DHT22;51813;40.666;16.602;2024-01-11T11:53:53;17.50;51.70
65231;DHT22;51813;40.666;16.602;2024-01-11T11:56:23;17.50;51.80
65231;DHT22;51813;40.666;16.602;2024-01-11T11:58:49;17.40;51.90
65231;DHT22;51813;40.666;16.602;2024-01-11T12:01:16;17.20;52.70
65231;DHT22;51813;40.666;16.602;2024-01-11T12:03:45;17.50;52.00
65231;DHT22;51813;40.666;16.602;2024-01-11T12:06:18;17.50;51.00
65231;DHT22;51813;40.666;16.602;2024-01-11T12:08:45;17.50;52.00
65231;DHT22;51813;40.666;16.602;2024-01-11T12:11:19;17.30;51.70
65231;DHT22;51813;40.666;16.602;2024-01-11T12:13:46;17.60;51.80
65231;DHT22;51813;40.666;16.602;2024-01-11T12:16:12;17.60;51.50
65231;DHT22;51813;40.666;16.602;2024-01-11T12:18:38;17.60;51.50
65231;DHT22;51813;40.666;16.602;2024-01-11T12:21:04;17.50;51.00
65231;DHT22;51813;40.666;16.602;2024-01-11T12:23:31;17.40;51.20
65231;DHT22;51813;40.666;16.602;2024-01-11T12:26:01;17.20;52.10
65231;DHT22;51813;40.666;16.602;2024-01-11T12:28:28;17.30;51.60
65231;DHT22;51813;40.666;16.602;2024-01-11T12:30:54;17.10;52.00
65231;DHT22;51813;40.666;16.602;2024-01-11T12:33:20;17.30;52.00
65231;DHT22;51813;40.666;16.602;2024-01-11T12:35:47;17.70;51.30
65231;DHT22;51813;40.666;16.602;2024-01-11T12:38:13;17.70;50.70
65231;DHT22;51813;40.666;16.602;2024-01-11T12:40:39;17.60;51.30
65231;DHT22;51813;40.666;16.602;2024-01-11T12:43:06;17.60;50.60
65231;DHT22;51813;40.666;16.602;2024-01-11T12:45:36;17.70;51.20
65231;DHT22;51813;40.666;16.602;2024-01-11T12:48:03;17.90;50.10
65231;DHT22;51813;40.666;16.602;2024-01-11T12:50:30;17.60;50.50
65231;DHT22;51813;40.666;16.602;2024-01-11T12:55:33;18.10;50.00
65231;DHT22;51813;40.666;16.602;2024-01-11T12:58:09;18.30;49.30
65231;DHT22;51813;40.666;16.602;2024-01-11T13:00:36;18.20;49.90
65231;DHT22;51813;40.666;16.602;2024-01-11T13:03:02;18.40;49.30
65231;DHT22;51813;40.666;16.602;2024-01-11T13:05:29;18.30;49.20
65231;DHT22;51813;40.666;16.602;2024-01-11T13:07:55;17.90;48.90
65231;DHT22;51813;40.666;16.602;2024-01-11T13:10:21;17.60;50.40
65231;DHT22;51813;40.666;16.602;2024-01-11T13:12:53;17.60;50.70
65231;DHT22;51813;40.666;16.602;2024-01-11T13:15:19;17.60;50.30
65231;DHT22;51813;40.666;16.602;2024-01-11T13:17:45;17.70;51.20
65231;DHT22;51813;40.666;16.602;2024-01-11T13:20:11;17.80;50.00
65231;DHT22;51813;40.666;16.602;2024-01-11T13:22:36;18.10;50.40
65231;DHT22;51813;40.666;16.602;2024-01-11T13:25:02;17.80;49.60
65231;DHT22;51813;40.666;16.602;2024-01-11T13:27:28;17.70;50.00
65231;DHT22;51813;40.666;16.602;2024-01-11T13:29:54;18.00;50.30
65231;DHT22;51813;40.666;16.602;2024-01-11T13:32:19;17.90;49.50
65231;DHT22;51813;40.666;16.602;2024-01-11T13:34:47;17.80;49.40
65231;DHT22;51813;40.666;16.602;2024-01-11T13:37:13;17.70;50.10
65231;DHT22;51813;40.666;16.602;2024-01-11T13:39:39;18.00;49.40
65231;DHT22;51813;40.666;16.602;2024-01-11T13:42:04;17.70;49.60
65231;DHT22;51813;40.666;16.602;2024-01-11T13:44:34;17.90;50.30
65231;DHT22;51813;40.666;16.602;2024-01-11T13:47:00;17.80;50.30
65231;DHT22;51813;40.666;16.602;2024-01-11T13:49:26;17.70;50.70
65231;DHT22;51813;40.666;16.602;2024-01-11T13:51:51;18.10;50.30
65231;DHT22;51813;40.666;16.602;2024-01-11T13:54:17;17.90;49.40
65231;DHT22;51813;40.666;16.602;2024-01-11T13:56:43;18.00;49.90
65231;DHT22;51813;40.666;16.602;2024-01-11T13:59:08;17.80;50.30
65231;DHT22;51813;40.666;16.602;2024-01-11T14:01:34;17.90;50.00
65231;DHT22;51813;40.666;16.602;2024-01-11T14:04:00;18.00;50.20
65231;DHT22;51813;40.666;16.602;2024-01-11T14:06:25;18.00;49.50
65231;DHT22;51813;40.666;16.602;2024-01-11T14:08:51;17.80;49.80
65231;DHT22;51813;40.666;16.602;2024-01-11T14:11:17;17.60;50.10
65231;DHT22;51813;40.666;16.602;2024-01-11T14:13:42;17.60;50.20
65231;DHT22;51813;40.666;16.602;2024-01-11T14:16:08;17.70;49.90
65231;DHT22;51813;40.666;16.602;2024-01-11T14:18:34;17.60;50.20
65231;DHT22;51813;40.666;16.602;2024-01-11T14:20:59;17.80;50.60
65231;DHT22;51813;40.666;16.602;2024-01-11T14:23:25;17.80;50.00
65231;DHT22;51813;40.666;16.602;2024-01-11T14:25:51;17.90;49.70
65231;DHT22;51813;40.666;16.602;2024-01-11T14:28:17;17.80;50.20
65231;DHT22;51813;40.666;16.602;2024-01-11T14:30:42;18.00;49.70
65231;DHT22;51813;40.666;16.602;2024-01-11T14:33:09;17.80;49.60
65231;DHT22;51813;40.666;16.602;2024-01-11T14:35:35;17.40;50.00
65231;DHT22;51813;40.666;16.602;2024-01-11T14:38:01;17.50;50.50
65231;DHT22;51813;40.666;16.602;2024-01-11T14:40:26;17.40;50.30
65231;DHT22;51813;40.666;16.602;2024-01-11T14:42:52;17.50;51.00
65231;DHT22;51813;40.666;16.602;2024-01-11T14:45:18;17.80;50.70
65231;DHT22;51813;40.666;16.602;2024-01-11T14:47:43;17.80;50.00
65231;DHT22;51813;40.666;16.602;2024-01-11T14:50:09;17.70;50.40
65231;DHT22;51813;40.666;16.602;2024-01-11T14:52:35;17.90;49.80
65231;DHT22;51813;40.666;16.602;2024-01-11T14:55:01;17.80;49.60
65231;DHT22;51813;40.666;16.602;2024-01-11T14:57:28;17.90;49.80
65231;DHT22;51813;40.666;16.602;2024-01-11T14:59:54;18.10;49.40
65231;DHT22;51813;40.666;16.602;2024-01-11T15:02:20;18.00;49.50
65231;DHT22;51813;40.666;16.602;2024-01-11T15:04:45;18.00;49.50
65231;DHT22;51813;40.666;16.602;2024-01-11T15:07:11;18.10;49.30
65231;DHT22;51813;40.666;16.602;2024-01-11T15:09:38;18.10;49.80
65231;DHT22;51813;40.666;16.602;2024-01-11T15:12:04;17.90;49.80
65231;DHT22;51813;40.666;16.602;2024-01-11T15:14:29;18.00;49.70